Time;durP1;ratioP1;P1;durP2;ratioP2;P2;SDS_P1;SDS_P2;PMS_P1;PMS_P2;Temp;Humidity;BMP_temperature;BMP_pressure;BME280_temperature;BME280_humidity;BME280_pressure;Samples;Min_cycle;Max_cycle;Signal;HPM_P1;HPM_P2
2023/01/17 00:02:11;;;;;;;2.40;2.00;;;;;;;3.97;100.00;98119.06;4996068;28;20049;-72
2023/01/17 00:10:13;;;;;;;4.65;1.48;;;;;;;4.02;100.00;98127.44;5025263;28;20041;-71
2023/01/17 00:12:38;;;;;;;3.47;1.50;;;;;;;4.08;100.00;98137.50;5011318;28;20049;-72
2023/01/17 00:15:06;;;;;;;6.80;1.38;;;;;;;3.99;100.00;98138.22;5024829;28;20037;-70
2023/01/17 00:17:34;;;;;;;0.80;0.80;;;;;;;4.02;100.00;98141.47;5024546;28;20658;-71
2023/01/17 01:35:18;;;;;;;4.03;1.00;;;;;;;3.51;100.00;98288.66;5012565;28;20684;-71
2023/01/17 01:37:43;;;;;;;3.47;0.80;;;;;;;3.29;100.00;98286.81;5024134;28;20061;-72
2023/01/17 01:40:09;;;;;;;4.00;1.00;;;;;;;3.38;100.00;98296.66;5019530;28;20049;-71
2023/01/17 01:42:35;;;;;;;3.13;0.80;;;;;;;3.43;100.00;98305.06;5023806;28;20045;-71
2023/01/17 01:45:14;;;;;;;7.00;1.10;;;;;;;3.23;100.00;98303.06;5023475;28;20037;-72
2023/01/17 01:47:41;;;;;;;2.90;0.85;;;;;;;3.22;100.00;98309.28;5017488;28;20064;-72
2023/01/17 01:50:09;;;;;;;5.53;0.90;;;;;;;3.15;100.00;98319.41;5023083;28;20796;-72
2023/01/17 01:52:38;;;;;;;9.48;0.93;;;;;;;3.28;100.00;98329.91;4999366;28;20060;-71
2023/01/17 01:55:14;;;;;;;5.13;1.67;;;;;;;3.06;100.00;98339.38;5023489;28;20084;-71
2023/01/17 01:57:44;;;;;;;4.82;1.10;;;;;;;3.00;100.00;98336.34;5023178;28;20037;-71
2023/01/17 02:00:17;;;;;;;3.90;0.60;;;;;;;2.85;100.00;98356.72;5018848;28;20482;-71
2023/01/17 02:02:44;;;;;;;2.75;0.43;;;;;;;2.67;100.00;98343.09;5022846;28;20057;-70
2023/01/17 02:05:13;;;;;;;2.72;0.60;;;;;;;2.74;100.00;98361.91;5010406;28;20045;-71
2023/01/17 02:08:00;;;;;;;0.95;0.35;;;;;;;2.72;100.00;98353.28;5022767;28;20040;-71
2023/01/17 02:10:25;;;;;;;1.35;0.68;;;;;;;2.71;100.00;98362.97;5022230;28;20037;-72
2023/01/17 02:12:52;;;;;;;2.28;1.02;;;;;;;2.74;100.00;98364.53;5022507;28;20057;-71
2023/01/17 02:15:17;;;;;;;2.17;0.68;;;;;;;2.62;100.00;98358.38;5021545;28;20139;-71
2023/01/17 02:17:49;;;;;;;1.35;0.70;;;;;;;2.69;100.00;98370.13;5021919;28;20629;-71
2023/01/17 02:20:51;;;;;;;2.20;0.52;;;;;;;2.87;100.00;98367.16;5021748;28;20094;-71
2023/01/17 02:23:48;;;;;;;0.60;0.60;;;;;;;2.69;100.00;98372.75;5011741;28;20116;-71
2023/01/17 02:26:46;;;;;;;2.95;0.80;;;;;;;2.76;100.00;98376.66;5018657;28;20095;-71
2023/01/17 02:29:49;;;;;;;0.65;0.65;;;;;;;2.74;100.00;98378.53;5022198;28;20136;-71
2023/01/17 02:32:40;;;;;;;1.98;0.65;;;;;;;2.65;100.00;98387.06;5012267;28;20044;-71
2023/01/17 02:35:26;;;;;;;4.53;1.00;;;;;;;2.62;100.00;98395.19;5022987;28;20041;-71
2023/01/17 02:38:14;;;;;;;1.05;0.70;;;;;;;2.56;100.00;98387.72;5023040;28;20041;-71
2023/01/17 02:40:39;;;;;;;3.22;1.00;;;;;;;2.52;100.00;98392.38;5019257;28;20044;-71
2023/01/17 02:43:10;;;;;;;2.92;1.20;;;;;;;2.54;100.00;98397.50;5023554;28;20045;-71
2023/01/17 02:45:36;;;;;;;5.28;1.27;;;;;;;2.57;100.00;98400.78;5008654;28;20105;-71
2023/01/17 02:48:02;;;;;;;1.80;1.25;;;;;;;2.59;100.00;98405.91;5026900;28;20124;-71
2023/01/17 02:50:44;;;;;;;1.38;0.95;;;;;;;2.52;100.00;98409.94;5019883;28;20045;-71
2023/01/17 02:53:47;;;;;;;2.25;1.50;;;;;;;2.36;100.00;98420.69;5026474;28;20786;-71
2023/01/17 02:57:00;;;;;;;8.20;1.45;;;;;;;2.34;100.00;98439.19;5024279;28;20036;-71
2023/01/17 02:59:39;;;;;;;;;;;;;;;2.37;100.00;98438.13;4981793;28;20442;-72
2023/01/17 03:02:13;;;;;;;6.32;1.38;;;;;;;2.34;100.00;98441.81;5023544;28;19921;-72
2023/01/17 03:05:02;;;;;;;3.85;1.30;;;;;;;2.34;100.00;98452.31;5020518;28;20041;-72
2023/01/17 03:07:29;;;;;;;1.95;1.55;;;;;;;2.31;100.00;98457.81;5008531;28;20471;-73
2023/01/17 03:09:58;;;;;;;1.90;1.20;;;;;;;2.42;100.00;98458.88;5004284;28;20045;-71
2023/01/17 03:12:29;;;;;;;5.78;1.30;;;;;;;2.37;100.00;98467.06;5021794;28;20083;-71
2023/01/17 03:14:55;;;;;;;6.53;1.45;;;;;;;2.47;100.00;98467.28;5025267;28;20048;-71
2023/01/17 03:17:29;;;;;;;6.03;1.48;;;;;;;2.55;100.00;98475.47;5025749;28;20052;-71
2023/01/17 03:19:54;;;;;;;3.65;1.70;;;;;;;2.47;100.00;98465.50;5025493;28;20037;-71
2023/01/17 03:22:20;;;;;;;8.85;1.80;;;;;;;2.50;100.00;98472.31;5005497;28;20030;-72
2023/01/17 03:24:45;;;;;;;4.95;2.30;;;;;;;2.39;100.00;98464.31;5024411;28;20049;-71
2023/01/17 03:27:10;;;;;;;6.72;2.80;;;;;;;2.40;100.00;98463.38;5025500;28;20056;-71
2023/01/17 03:29:36;;;;;;;7.00;2.70;;;;;;;2.39;100.00;98467.78;5025070;28;20029;-71
2023/01/17 03:32:01;;;;;;;4.43;2.45;;;;;;;2.34;100.00;98459.38;5023817;28;20558;-71
2023/01/17 03:34:27;;;;;;;3.80;2.05;;;;;;;2.23;100.00;98449.59;5024843;28;20103;-71
2023/01/17 03:36:52;;;;;;;2.55;1.85;;;;;;;1.97;100.00;98463.66;5006846;28;20136;-71
2023/01/17 03:39:17;;;;;;;3.40;1.92;;;;;;;1.97;100.00;98461.84;5024791;28;20068;-71
2023/01/17 03:41:43;;;;;;;2.30;1.60;;;;;;;1.95;100.00;98468.16;5011990;28;20037;-71
2023/01/17 03:44:08;;;;;;;2.60;1.88;;;;;;;1.96;100.00;98465.44;5024723;28;20126;-71
2023/01/17 03:46:35;;;;;;;8.60;2.10;;;;;;;1.90;100.00;98470.25;5024702;28;20060;-71
2023/01/17 03:49:00;;;;;;;4.28;2.10;;;;;;;1.99;100.00;98467.00;5018390;28;20079;-72
2023/01/17 03:51:26;;;;;;;5.85;2.05;;;;;;;1.86;100.00;98472.25;5022107;28;20049;-72
2023/01/17 03:53:51;;;;;;;3.53;2.00;;;;;;;2.06;100.00;98482.28;5024604;28;20033;-71
2023/01/17 03:56:17;;;;;;;2.72;1.73;;;;;;;1.85;100.00;98486.31;4990368;28;20042;-72
2023/01/17 03:58:43;;;;;;;2.17;1.67;;;;;;;2.02;100.00;98491.31;5018360;28;20041;-72
2023/01/17 04:01:08;;;;;;;5.55;2.00;;;;;;;2.04;100.00;98499.91;5024394;28;20838;-71
2023/01/17 04:03:34;;;;;;;2.72;1.67;;;;;;;2.09;100.00;98502.25;5024161;28;20044;-71
2023/01/17 04:05:59;;;;;;;7.57;2.25;;;;;;;2.13;100.00;98508.97;5024681;28;20037;-71
2023/01/17 04:08:24;;;;;;;2.65;1.58;;;;;;;2.20;100.00;98515.50;5012931;28;20049;-72
2023/01/17 04:10:50;;;;;;;3.88;1.42;;;;;;;2.16;100.00;98516.69;5024778;28;20280;-72
2023/01/17 04:13:15;;;;;;;3.28;1.45;;;;;;;2.17;100.00;98514.88;5024987;28;20732;-71
2023/01/17 04:15:44;;;;;;;5.53;1.52;;;;;;;2.27;100.00;98516.81;5019433;28;20053;-71
2023/01/17 04:18:11;;;;;;;4.57;1.25;;;;;;;2.13;100.00;98514.25;5011648;28;20120;-71
2023/01/17 04:20:38;;;;;;;11.30;1.75;;;;;;;2.31;100.00;98517.44;5022163;28;20044;-71
2023/01/17 04:23:04;;;;;;;6.45;1.42;;;;;;;2.23;100.00;98517.09;5024905;28;20463;-72
2023/01/17 04:25:30;;;;;;;8.23;1.20;;;;;;;2.24;100.00;98513.53;5016129;28;20042;-71
2023/01/17 04:27:57;;;;;;;4.45;1.10;;;;;;;2.35;100.00;98513.63;5024203;28;20049;-72
2023/01/17 04:30:23;;;;;;;5.20;1.15;;;;;;;2.16;100.00;98514.06;5023795;28;20025;-71
2023/01/17 04:32:48;;;;;;;7.90;1.50;;;;;;;2.13;100.00;98516.03;5023997;28;20044;-71
2023/01/17 04:35:15;;;;;;;1.98;1.05;;;;;;;2.06;100.00;98507.72;5014817;28;20150;-72
2023/01/17 04:37:40;;;;;;;6.65;1.67;;;;;;;1.90;100.00;98513.13;5022647;28;20037;-71
2023/01/17 04:40:07;;;;;;;8.32;1.67;;;;;;;1.74;100.00;98518.53;5015075;28;20092;-71
2023/01/17 04:42:33;;;;;;;8.25;1.55;;;;;;;1.86;100.00;98519.53;5020399;28;20113;-71
2023/01/17 04:44:58;;;;;;;10.07;2.45;;;;;;;1.75;100.00;98517.59;5005576;28;20816;-72
2023/01/17 04:47:23;;;;;;;3.03;1.50;;;;;;;1.70;100.00;98516.19;5023010;28;20076;-72
2023/01/17 04:49:49;;;;;;;9.77;2.30;;;;;;;1.47;100.00;98529.03;5023937;28;20048;-71
2023/01/17 04:52:17;;;;;;;10.32;4.53;;;;;;;1.60;100.00;98525.63;5024367;28;20037;-71
2023/01/17 04:54:43;;;;;;;3.80;2.65;;;;;;;1.55;100.00;98531.16;5012251;28;20037;-72
2023/01/17 04:57:08;;;;;;;6.20;2.72;;;;;;;1.49;100.00;98531.56;5029847;28;20048;-71
2023/01/17 04:59:34;;;;;;;8.55;3.33;;;;;;;1.41;100.00;98528.59;5025090;28;20033;-72
2023/01/17 05:01:59;;;;;;;9.68;3.47;;;;;;;1.56;100.00;98532.88;5014025;28;20494;-71
2023/01/17 05:04:24;;;;;;;6.38;3.28;;;;;;;1.52;100.00;98531.38;5021065;28;20128;-71
2023/01/17 05:06:50;;;;;;;11.10;3.67;;;;;;;1.51;100.00;98532.31;5022088;28;20781;-72
2023/01/17 05:09:15;;;;;;;7.20;3.90;;;;;;;1.41;100.00;98534.69;5019934;28;20045;-71
2023/01/17 05:11:41;;;;;;;9.43;3.90;;;;;;;1.57;100.00;98537.19;5023223;28;20136;-71
2023/01/17 05:14:06;;;;;;;12.15;4.40;;;;;;;1.46;100.00;98544.91;5023336;28;20399;-71
2023/01/17 05:16:31;;;;;;;8.68;3.80;;;;;;;1.45;100.00;98536.16;5021648;28;20110;-72
2023/01/17 05:18:57;;;;;;;9.45;3.78;;;;;;;1.44;100.00;98544.97;5012243;28;20041;-71
2023/01/17 05:21:24;;;;;;;9.95;3.63;;;;;;;1.51;100.00;98548.91;5007542;28;20072;-72
2023/01/17 05:23:49;;;;;;;10.95;4.22;;;;;;;1.55;100.00;98554.78;5019651;28;20561;-71
2023/01/17 05:26:15;;;;;;;12.38;3.75;;;;;;;1.43;100.00;98564.31;5018717;28;20044;-71
2023/01/17 05:28:41;;;;;;;7.63;3.30;;;;;;;1.42;100.00;98572.28;5022911;28;20662;-71
2023/01/17 05:31:06;;;;;;;9.00;3.90;;;;;;;1.49;100.00;98570.94;5020736;28;20049;-71
2023/01/17 05:33:32;;;;;;;12.80;3.60;;;;;;;1.38;100.00;98565.53;5001263;28;20149;-71
2023/01/17 05:35:57;;;;;;;5.95;3.00;;;;;;;1.41;100.00;98573.22;5020993;28;20034;-71
2023/01/17 05:38:23;;;;;;;14.07;3.22;;;;;;;1.39;100.00;98568.03;5022513;28;20080;-72
2023/01/17 05:40:49;;;;;;;13.80;3.00;;;;;;;1.37;100.00;98569.94;5017853;28;20609;-72
2023/01/17 05:43:14;;;;;;;12.30;3.70;;;;;;;1.32;100.00;98579.03;5011505;28;20502;-71
2023/01/17 05:45:40;;;;;;;16.13;3.63;;;;;;;1.35;100.00;98568.34;5017545;28;20120;-71
2023/01/17 05:48:08;;;;;;;13.35;3.45;;;;;;;1.29;100.00;98572.19;5014644;28;20077;-71
2023/01/17 05:50:36;;;;;;;11.73;3.47;;;;;;;1.42;100.00;98564.41;5011262;28;20034;-71
2023/01/17 05:53:03;;;;;;;10.82;3.67;;;;;;;1.26;100.00;98577.66;5019061;28;20033;-72
2023/01/17 05:55:29;;;;;;;16.40;4.00;;;;;;;1.34;100.00;98572.75;5015675;28;20044;-72
2023/01/17 05:57:55;;;;;;;13.45;4.30;;;;;;;1.24;100.00;98574.25;5016569;28;20083;-71
2023/01/17 06:00:21;;;;;;;14.43;3.75;;;;;;;1.23;100.00;98583.06;5019344;28;20041;-71
2023/01/17 06:02:47;;;;;;;7.82;3.72;;;;;;;1.19;100.00;98584.19;5025667;28;20032;-72
2023/01/17 06:05:13;;;;;;;8.27;5.15;;;;;;;1.17;100.00;98593.97;5037671;28;20078;-71
2023/01/17 06:07:39;;;;;;;10.18;3.50;;;;;;;1.22;100.00;98592.72;5024767;28;20033;-71
2023/01/17 06:10:04;;;;;;;8.40;3.72;;;;;;;1.20;100.00;98594.59;5023319;28;20099;-72
2023/01/17 06:12:31;;;;;;;9.68;3.92;;;;;;;1.17;100.00;98597.41;5017837;28;20131;-71
2023/01/17 06:14:56;;;;;;;10.65;4.07;;;;;;;1.19;100.00;98600.78;5017176;28;20071;-71
2023/01/17 06:17:21;;;;;;;11.25;2.83;;;;;;;1.22;100.00;98595.34;5004065;28;20461;-73
2023/01/17 06:19:47;;;;;;;15.00;2.70;;;;;;;1.06;100.00;98596.41;5018033;28;20041;-71
2023/01/17 06:22:13;;;;;;;12.00;2.75;;;;;;;1.16;100.00;98603.63;5029816;28;20034;-72
2023/01/17 06:24:39;;;;;;;12.57;2.78;;;;;;;1.21;100.00;98601.56;5020543;28;20060;-71
2023/01/17 06:27:08;;;;;;;9.93;3.10;;;;;;;1.33;100.00;98605.19;5017674;28;20042;-72
2023/01/17 06:29:33;;;;;;;9.60;2.47;;;;;;;1.21;100.00;98600.72;5029985;28;20104;-72
2023/01/17 06:31:59;;;;;;;7.28;2.90;;;;;;;1.19;100.00;98602.56;5027304;28;20055;-72
2023/01/17 06:34:24;;;;;;;8.77;3.03;;;;;;;1.21;100.00;98604.19;5021477;28;20033;-71
2023/01/17 06:36:50;;;;;;;19.00;3.25;;;;;;;1.21;100.00;98604.19;5019651;28;20033;-71
2023/01/17 06:39:15;;;;;;;8.45;3.53;;;;;;;1.24;100.00;98608.38;5022279;28;20160;-71
2023/01/17 06:41:41;;;;;;;8.10;3.38;;;;;;;1.21;100.00;98611.22;5019096;28;20042;-71
2023/01/17 06:44:08;;;;;;;16.67;4.65;;;;;;;1.12;100.00;98614.38;5017593;28;20056;-72
2023/01/17 06:46:34;;;;;;;12.70;3.25;;;;;;;1.15;100.00;98617.66;5001128;28;20129;-72
2023/01/17 06:48:59;;;;;;;8.30;3.33;;;;;;;1.13;100.00;98619.53;5021131;28;20152;-71
2023/01/17 06:51:24;;;;;;;11.90;3.80;;;;;;;1.23;100.00;98614.56;5022392;28;20045;-71
2023/01/17 06:53:50;;;;;;;10.43;3.60;;;;;;;1.13;100.00;98614.28;5018740;28;20115;-72
2023/01/17 06:56:15;;;;;;;10.60;3.72;;;;;;;1.11;100.00;98618.78;5019729;28;20083;-72
2023/01/17 06:58:41;;;;;;;9.48;4.50;;;;;;;1.06;100.00;98617.38;5017499;28;20479;-72
2023/01/17 07:01:09;;;;;;;7.80;4.05;;;;;;;1.06;100.00;98622.63;5022148;28;20148;-71
2023/01/17 07:03:35;;;;;;;11.40;5.00;;;;;;;1.15;100.00;98619.44;5025791;28;20037;-72
2023/01/17 07:06:01;;;;;;;13.88;4.88;;;;;;;1.10;100.00;98622.34;5022511;28;20639;-71
2023/01/17 07:08:28;;;;;;;17.75;4.88;;;;;;;1.15;100.00;98622.91;5021633;28;20080;-72
2023/01/17 07:10:59;;;;;;;14.52;5.80;;;;;;;1.07;100.00;98630.41;5022255;28;20044;-72
2023/01/17 07:13:25;;;;;;;16.10;5.57;;;;;;;1.07;100.00;98626.94;5013973;28;20084;-72
2023/01/17 07:15:50;;;;;;;15.10;6.15;;;;;;;1.13;100.00;98626.56;5021798;28;20033;-72
2023/01/17 07:18:19;;;;;;;12.05;5.13;;;;;;;1.06;100.00;98622.63;5012690;28;20141;-72
2023/01/17 07:20:45;;;;;;;14.27;6.20;;;;;;;0.99;100.00;98630.84;5020310;28;20736;-72
2023/01/17 07:23:11;;;;;;;20.33;5.97;;;;;;;1.11;100.00;98629.28;5024442;28;20105;-72
2023/01/17 07:25:36;;;;;;;13.48;5.88;;;;;;;1.03;100.00;98628.91;5024292;28;20120;-72
2023/01/17 07:28:02;;;;;;;20.10;6.60;;;;;;;1.01;100.00;98628.16;5023309;28;20148;-72
2023/01/17 07:30:28;;;;;;;21.15;6.07;;;;;;;1.07;100.00;98624.31;5005909;28;20045;-72
2023/01/17 07:32:54;;;;;;;18.52;6.38;;;;;;;1.07;100.00;98630.41;5025256;28;20156;-71
2023/01/17 07:35:20;;;;;;;15.45;7.30;;;;;;;1.06;100.00;98630.50;5018257;28;20140;-72
2023/01/17 07:37:49;;;;;;;24.95;6.38;;;;;;;0.99;100.00;98636.09;5007041;28;20038;-72
2023/01/17 07:40:16;;;;;;;25.38;6.97;;;;;;;1.02;100.00;98627.22;4998706;28;20084;-72
2023/01/17 07:42:43;;;;;;;28.95;7.35;;;;;;;1.00;100.00;98629.94;5023317;28;20048;-72
2023/01/17 07:45:10;;;;;;;26.83;8.02;;;;;;;0.98;100.00;98633.59;5005816;28;20522;-71
2023/01/17 07:47:35;;;;;;;21.60;6.72;;;;;;;1.04;100.00;98639.28;5005636;28;20033;-72
2023/01/17 07:50:01;;;;;;;25.38;8.13;;;;;;;1.16;100.00;98637.72;5017971;28;20136;-71
2023/01/17 07:52:27;;;;;;;18.48;7.88;;;;;;;1.13;100.00;98635.28;5006798;28;20123;-71
2023/01/17 07:54:52;;;;;;;25.33;8.38;;;;;;;1.22;100.00;98634.72;5024559;28;20128;-71
2023/01/17 07:57:17;;;;;;;24.77;7.82;;;;;;;1.20;100.00;98639.22;5024047;28;20120;-72
2023/01/17 07:59:43;;;;;;;13.48;6.90;;;;;;;1.17;100.00;98638.56;5023121;28;20033;-73
2023/01/17 08:02:16;;;;;;;18.02;7.22;;;;;;;1.33;100.00;98641.09;5023878;28;20624;-72
2023/01/17 08:04:42;;;;;;;20.02;7.97;;;;;;;1.23;100.00;98638.19;5024790;28;20041;-73
2023/01/17 08:07:07;;;;;;;18.92;8.10;;;;;;;1.27;100.00;98635.28;5024186;28;20049;-72
2023/01/17 08:09:33;;;;;;;26.58;8.70;;;;;;;1.34;100.00;98645.41;5015617;28;20060;-72
2023/01/17 08:11:58;;;;;;;15.18;6.93;;;;;;;1.37;100.00;98640.00;5024262;28;20045;-72
2023/01/17 08:14:24;;;;;;;18.50;7.20;;;;;;;1.47;100.00;98635.84;5023325;28;20093;-72
2023/01/17 08:16:50;;;;;;;22.73;8.05;;;;;;;1.41;100.00;98644.97;5024321;28;20038;-72
2023/01/17 08:19:15;;;;;;;23.88;8.70;;;;;;;1.49;100.00;98636.59;5024605;28;20831;-72
2023/01/17 08:21:41;;;;;;;21.85;8.05;;;;;;;1.44;100.00;98641.28;5003032;28;20068;-72
2023/01/17 08:24:13;;;;;;;25.42;8.48;;;;;;;1.44;100.00;98647.38;5012650;28;20060;-72
2023/01/17 08:26:39;;;;;;;;;;;;;;;1.54;100.00;98648.50;5025154;28;20045;-72
2023/01/17 08:29:04;;;;;;;24.27;8.65;;;;;;;1.52;100.00;98647.75;5014584;28;20366;-72
2023/01/17 08:31:32;;;;;;;30.67;9.27;;;;;;;1.44;100.00;98646.53;5024476;28;20136;-72
2023/01/17 08:33:58;;;;;;;21.98;9.43;;;;;;;1.49;100.00;98645.31;5023900;28;20033;-72
2023/01/17 08:36:25;;;;;;;28.80;9.05;;;;;;;1.57;100.00;98644.00;5019700;28;20540;-71
2023/01/17 08:38:54;;;;;;;33.75;8.98;;;;;;;1.41;100.00;98644.13;5017383;28;20037;-72
2023/01/17 08:41:21;;;;;;;23.52;10.20;;;;;;;1.51;100.00;98653.13;5023594;28;20132;-71
2023/01/17 08:43:50;;;;;;;24.60;10.13;;;;;;;1.59;100.00;98650.00;5023430;28;20038;-72
2023/01/17 08:46:16;;;;;;;29.85;14.18;;;;;;;1.64;100.00;98654.03;5019956;28;20047;-72
2023/01/17 08:48:42;;;;;;;24.73;11.00;;;;;;;1.73;100.00;98647.38;5002138;28;20037;-71
2023/01/17 08:51:08;;;;;;;22.05;11.68;;;;;;;1.83;100.00;98648.47;5020702;28;20485;-72
2023/01/17 08:53:33;;;;;;;27.80;12.43;;;;;;;1.90;100.00;98649.75;5017570;28;20181;-71
2023/01/17 08:56:00;;;;;;;36.80;13.02;;;;;;;1.96;100.00;98651.19;5018702;28;20068;-71
2023/01/17 08:58:27;;;;;;;31.33;12.15;;;;;;;2.02;100.00;98649.00;5022274;28;20037;-72
2023/01/17 09:00:53;;;;;;;32.92;12.40;;;;;;;1.95;100.00;98654.72;5012808;28;20045;-72
2023/01/17 09:03:18;;;;;;;32.67;13.23;;;;;;;2.14;100.00;98649.16;5023124;28;20049;-71
2023/01/17 09:05:43;;;;;;;39.42;13.73;;;;;;;2.22;100.00;98654.78;5023867;28;20040;-72
2023/01/17 09:08:09;;;;;;;40.08;14.75;;;;;;;2.23;100.00;98656.44;5002127;28;20099;-72
2023/01/17 09:10:34;;;;;;;34.63;14.23;;;;;;;2.32;100.00;98663.75;5021120;28;20033;-72
2023/01/17 09:13:00;;;;;;;36.17;15.45;;;;;;;2.36;100.00;98670.50;5013322;28;20061;-71
2023/01/17 09:15:25;;;;;;;39.08;16.50;;;;;;;2.62;100.00;98670.59;5004263;28;20051;-73
2023/01/17 09:17:54;;;;;;;42.00;16.73;;;;;;;2.60;100.00;98668.88;5023269;28;20045;-71
2023/01/17 09:20:20;;;;;;;45.20;17.80;;;;;;;2.67;100.00;98677.22;5021929;28;20044;-72
2023/01/17 09:22:45;;;;;;;42.55;17.23;;;;;;;2.88;100.00;98685.47;5022464;28;20906;-71
2023/01/17 09:25:11;;;;;;;58.45;20.83;;;;;;;2.88;100.00;98676.75;5021461;28;20144;-72
2023/01/17 09:27:36;;;;;;;40.10;19.08;;;;;;;2.60;100.00;98686.44;5021540;28;20044;-72
2023/01/17 09:30:02;;;;;;;46.72;19.67;;;;;;;2.76;100.00;98688.91;5015730;28;20041;-72
2023/01/17 09:32:28;;;;;;;45.90;19.02;;;;;;;2.75;100.00;98692.50;5003915;28;20045;-72
2023/01/17 09:34:56;;;;;;;51.47;21.85;;;;;;;2.87;100.00;98696.97;4999911;28;20042;-71
2023/01/17 09:37:22;;;;;;;51.20;22.83;;;;;;;2.95;100.00;98699.06;5017387;28;20048;-71
2023/01/17 09:39:47;;;;;;;56.97;24.00;;;;;;;3.01;100.00;98702.16;5021583;28;20402;-72
2023/01/17 09:42:37;;;;;;;51.83;23.38;;;;;;;2.99;100.00;98703.19;5022207;28;20493;-72
2023/01/17 09:45:02;;;;;;;50.03;23.15;;;;;;;3.00;100.00;98703.06;5006803;28;20342;-72
2023/01/17 09:47:38;;;;;;;49.35;24.33;;;;;;;3.02;100.00;98706.47;5009966;28;20080;-71
2023/01/17 09:50:32;;;;;;;60.45;25.10;;;;;;;2.94;100.00;98705.28;5022507;28;20041;-71
2023/01/17 09:53:17;;;;;;;52.78;23.63;;;;;;;3.14;100.00;98720.59;5021158;28;20057;-72
2023/01/17 09:55:51;;;;;;;52.58;23.88;;;;;;;3.36;100.00;98720.84;5004616;28;20372;-72
2023/01/17 09:58:39;;;;;;;46.03;22.02;;;;;;;3.52;100.00;98725.06;5008966;28;20582;-71
2023/01/17 10:01:16;;;;;;;56.67;23.23;;;;;;;3.55;100.00;98720.41;4999566;28;20145;-71
2023/01/17 10:04:08;;;;;;;42.90;20.33;;;;;;;3.61;100.00;98727.03;5021375;28;20056;-72
2023/01/17 10:06:54;;;;;;;43.78;19.80;;;;;;;3.39;100.00;98722.41;4967591;28;20412;-72
2023/01/17 10:09:48;;;;;;;35.85;17.33;;;;;;;3.78;100.00;98721.47;5022895;28;20097;-72
2023/01/17 10:12:44;;;;;;;39.90;18.10;;;;;;;3.68;100.00;98728.31;5022005;28;20037;-72
2023/01/17 10:15:24;;;;;;;31.95;12.63;;;;;;;3.69;100.00;98724.72;4986359;28;20625;-72
2023/01/17 10:18:23;;;;;;;22.48;11.57;;;;;;;3.62;100.00;98719.06;5021745;28;20049;-72
2023/01/17 10:21:08;;;;;;;30.88;15.07;;;;;;;3.93;100.00;98719.56;5022506;28;20120;-71
2023/01/17 10:23:43;;;;;;;29.75;14.48;;;;;;;3.80;100.00;98714.28;4991929;28;20057;-72
2023/01/17 10:26:15;;;;;;;34.33;12.05;;;;;;;3.59;100.00;98718.41;5022318;28;20047;-72
2023/01/17 10:28:47;;;;;;;16.38;8.63;;;;;;;3.54;100.00;98709.97;5020920;28;20139;-71
2023/01/17 10:31:25;;;;;;;16.17;8.80;;;;;;;3.62;100.00;98719.06;5022506;28;20079;-72
2023/01/17 10:34:05;;;;;;;18.98;8.98;;;;;;;3.57;100.00;98715.91;5022419;28;20041;-72
2023/01/17 10:36:38;;;;;;;19.63;8.05;;;;;;;3.88;100.00;98719.88;5017127;28;20237;-72
2023/01/17 10:39:16;;;;;;;15.70;8.00;;;;;;;3.83;100.00;98715.88;5022462;28;20057;-72
2023/01/17 10:41:45;;;;;;;14.75;7.40;;;;;;;3.96;100.00;98714.03;5021856;28;20053;-72
2023/01/17 10:44:22;;;;;;;40.80;9.88;;;;;;;3.88;100.00;98716.41;5021338;28;20087;-72
2023/01/17 10:47:09;;;;;;;16.55;7.80;;;;;;;3.78;100.00;98716.19;5002508;28;20069;-72
2023/01/17 10:49:38;;;;;;;22.17;8.07;;;;;;;4.06;100.00;98717.72;5021376;28;20049;-72
2023/01/17 10:52:21;;;;;;;14.73;6.88;;;;;;;4.53;100.00;98708.19;5019784;28;20050;-72
2023/01/17 10:55:14;;;;;;;17.38;6.75;;;;;;;4.21;100.00;98712.31;5020719;28;20037;-72
2023/01/17 10:57:42;;;;;;;17.08;6.90;;;;;;;4.33;100.00;98704.38;4976879;28;20213;-72
2023/01/17 11:00:38;;;;;;;14.77;5.95;;;;;;;4.66;100.00;98702.84;5021860;28;20141;-72
2023/01/17 11:03:04;;;;;;;15.38;6.45;;;;;;;4.47;100.00;98694.59;5023474;28;20422;-72
2023/01/17 11:05:32;;;;;;;19.80;6.88;;;;;;;4.35;100.00;98691.06;5025718;28;20041;-72
2023/01/17 11:08:06;;;;;;;18.40;6.90;;;;;;;4.22;100.00;98698.16;5025948;28;20123;-71
2023/01/17 11:10:36;;;;;;;14.75;6.03;;;;;;;4.37;100.00;98705.00;5020373;28;20058;-71
2023/01/17 11:13:21;;;;;;;11.68;5.95;;;;;;;4.13;100.00;98697.88;5017461;28;20045;-72
2023/01/17 11:15:50;;;;;;;11.00;5.78;;;;;;;4.24;100.00;98698.91;5026077;28;20076;-71
2023/01/17 11:18:20;;;;;;;13.13;5.95;;;;;;;4.37;100.00;98700.56;5024460;28;20068;-72
2023/01/17 11:20:47;;;;;;;12.60;6.85;;;;;;;4.25;100.00;98695.31;5033455;28;20144;-71
2023/01/17 11:23:25;;;;;;;16.80;6.25;;;;;;;4.44;99.78;98697.47;5032502;28;20033;-72
2023/01/17 11:25:57;;;;;;;10.45;5.55;;;;;;;4.29;99.16;98688.88;5020341;28;20042;-72
2023/01/17 11:28:24;;;;;;;14.80;5.57;;;;;;;4.30;100.00;98699.28;5014690;28;20037;-72
2023/01/17 11:30:53;;;;;;;14.02;5.68;;;;;;;4.50;98.84;98697.00;5024565;28;20056;-74
2023/01/17 11:33:46;;;;;;;11.02;5.20;;;;;;;4.33;100.00;98695.63;5023365;28;20049;-72
2023/01/17 11:36:27;;;;;;;9.95;4.47;;;;;;;4.49;98.05;98690.91;5025225;28;20045;-72
2023/01/17 11:38:55;;;;;;;7.57;4.72;;;;;;;4.38;97.29;98693.47;5014590;28;20052;-72
2023/01/17 11:41:21;;;;;;;12.63;4.32;;;;;;;4.24;96.84;98683.91;5024755;28;20045;-72
2023/01/17 11:43:56;;;;;;;11.38;4.63;;;;;;;4.40;96.22;98683.66;5024621;28;20605;-72
2023/01/17 11:46:22;;;;;;;8.95;4.28;;;;;;;4.32;94.93;98678.09;5024503;28;20501;-72
2023/01/17 11:48:56;;;;;;;8.82;4.43;;;;;;;4.18;95.36;98684.38;5024837;28;20041;-72
2023/01/17 11:51:32;;;;;;;10.30;4.95;;;;;;;4.35;96.67;98683.97;5024214;28;20045;-72
2023/01/17 11:54:26;;;;;;;17.05;4.82;;;;;;;4.46;95.53;98682.34;5020535;28;20045;-72
2023/01/17 11:57:01;;;;;;;7.13;4.38;;;;;;;4.54;95.85;98677.38;5014554;28;20697;-72
2023/01/17 11:59:36;;;;;;;9.63;4.57;;;;;;;4.45;92.84;98672.75;5013130;28;20151;-72
2023/01/17 12:02:42;;;;;;;9.63;4.47;;;;;;;4.61;94.52;98675.94;5022492;28;20078;-73
2023/01/17 12:05:25;;;;;;;8.25;4.13;;;;;;;4.53;92.17;98673.88;5021138;28;20045;-72
2023/01/17 12:08:02;;;;;;;8.48;5.03;;;;;;;4.57;92.01;98674.50;5024843;28;20029;-72
2023/01/17 12:10:52;;;;;;;9.45;4.18;;;;;;;4.65;91.74;98672.13;5024716;28;20091;-73
2023/01/17 12:14:00;;;;;;;6.85;3.92;;;;;;;4.48;91.77;98680.47;5017534;28;20049;-72
2023/01/17 12:16:32;;;;;;;7.78;3.70;;;;;;;4.83;92.02;98668.13;5015839;28;20057;-72
2023/01/17 12:19:03;;;;;;;19.38;4.38;;;;;;;4.79;91.91;98674.59;5022631;28;20412;-72
2023/01/17 12:21:46;;;;;;;14.52;3.72;;;;;;;4.49;88.47;98674.22;5023706;28;20919;-72
2023/01/17 12:24:26;;;;;;;6.75;3.33;;;;;;;4.41;86.13;98670.34;5023083;28;20076;-72
2023/01/17 12:27:07;;;;;;;9.77;3.65;;;;;;;4.51;86.10;98669.66;5019443;28;20084;-72
2023/01/17 12:29:45;;;;;;;10.07;3.28;;;;;;;4.09;87.72;98674.47;5021648;28;20503;-72
2023/01/17 12:32:13;;;;;;;8.90;3.75;;;;;;;4.06;87.38;98672.03;5019489;28;20519;-72
2023/01/17 12:34:51;;;;;;;11.73;3.28;;;;;;;4.25;88.25;98671.56;5024375;28;20033;-72
2023/01/17 12:37:33;;;;;;;7.18;3.00;;;;;;;3.96;86.21;98677.13;5024239;28;20076;-72
2023/01/17 12:40:07;;;;;;;7.60;3.72;;;;;;;4.24;85.61;98670.72;5023748;28;20045;-72
2023/01/17 12:42:49;;;;;;;9.38;2.65;;;;;;;4.41;83.12;98674.78;5024395;28;20037;-72
2023/01/17 12:45:30;;;;;;;7.68;2.50;;;;;;;4.70;83.74;98663.88;5023237;28;20124;-72
2023/01/17 12:48:21;;;;;;;7.90;3.15;;;;;;;4.70;84.30;98670.00;5022735;28;20049;-72
2023/01/17 12:51:10;;;;;;;12.07;2.33;;;;;;;4.44;82.05;98669.28;5013813;28;20057;-72
2023/01/17 12:53:44;;;;;;;6.32;2.60;;;;;;;4.34;80.22;98669.09;5012966;28;20049;-72
2023/01/17 12:56:22;;;;;;;5.53;2.08;;;;;;;4.41;78.86;98672.13;5023408;28;20494;-72
2023/01/17 12:58:51;;;;;;;3.70;1.73;;;;;;;4.53;78.07;98670.41;5014574;28;20735;-72
2023/01/17 13:01:41;;;;;;;9.48;2.00;;;;;;;4.37;78.28;98668.06;5022257;28;20056;-72
2023/01/17 13:04:28;;;;;;;8.98;1.45;;;;;;;4.46;75.34;98669.16;5011247;28;20091;-72
2023/01/17 13:07:35;;;;;;;4.00;1.38;;;;;;;4.36;75.92;98656.63;5023263;28;20076;-72
2023/01/17 13:10:23;;;;;;;5.57;1.50;;;;;;;4.30;75.64;98669.44;5018075;28;20402;-72